Time;durP1;ratioP1;P1;durP2;ratioP2;P2;SDS_P1;SDS_P2;PMS_P1;PMS_P2;Temp;Humidity;BMP_temperature;BMP_pressure;BME280_temperature;BME280_humidity;BME280_pressure;Samples;Min_cycle;Max_cycle;Signal;HPM_P1;HPM_P2
2023/08/01 00:00:36;;;;;;;;;;;;;;;15.77;100.00;99809.34;5047388;28;1509;-76
2023/08/01 00:03:02;;;;;;;;;;;;;;;15.76;100.00;99806.88;5043810;28;1957;-76
2023/08/01 00:05:27;;;;;;;;;;;;;;;15.74;100.00;99807.09;5045195;28;1570;-76
2023/08/01 00:07:53;;;;;;;;;;;;;;;15.75;100.00;99813.13;5038982;28;1154;-76
2023/08/01 00:10:18;;;;;;;;;;;;;;;15.75;100.00;99807.88;5043865;28;1371;-75
2023/08/01 00:12:43;;;;;;;;;;;;;;;15.75;100.00;99803.47;5035857;28;1388;-75
2023/08/01 00:15:08;;;;;;;;;;;;;;;15.73;100.00;99800.25;5047407;28;1308;-75
2023/08/01 00:17:34;;;;;;;;;;;;;;;15.75;100.00;99793.00;5044492;28;1184;-75
2023/08/01 00:20:00;;;;;;;;;;;;;;;15.73;100.00;99784.56;5041925;28;1022;-76
2023/08/01 00:22:26;;;;;;;;;;;;;;;15.73;100.00;99783.75;5043525;28;1911;-75
2023/08/01 00:24:51;;;;;;;;;;;;;;;15.70;100.00;99790.13;5047993;28;1212;-76
2023/08/01 00:27:16;;;;;;;;;;;;;;;15.69;100.00;99783.28;5044863;28;1133;-76
2023/08/01 00:29:42;;;;;;;;;;;;;;;15.69;100.00;99785.09;5046122;28;1737;-76
2023/08/01 00:32:07;;;;;;;;;;;;;;;15.67;100.00;99780.06;5049427;28;1811;-75
2023/08/01 00:34:32;;;;;;;;;;;;;;;15.67;100.00;99774.84;5046148;28;1209;-75
2023/08/01 00:36:58;;;;;;;;;;;;;;;15.66;100.00;99775.84;5046635;28;1072;-76
2023/08/01 00:39:23;;;;;;;;;;;;;;;15.66;100.00;99783.69;5051904;28;1386;-74
2023/08/01 00:41:48;;;;;;;;;;;;;;;15.65;100.00;99779.41;5049361;28;1356;-75
2023/08/01 00:44:13;;;;;;;;;;;;;;;15.65;100.00;99769.78;5040544;28;1969;-76
2023/08/01 00:46:38;;;;;;;;;;;;;;;15.64;100.00;99770.75;5029727;28;1614;-76
2023/08/01 00:49:04;;;;;;;;;;;;;;;15.65;100.00;99761.13;5051504;28;1196;-76
2023/08/01 00:51:30;;;;;;;;;;;;;;;15.65;100.00;99761.13;5047993;28;1229;-76
2023/08/01 00:53:56;;;;;;;;;;;;;;;15.63;100.00;99768.34;5050282;28;1569;-76
2023/08/01 00:56:21;;;;;;;;;;;;;;;15.64;100.00;99759.50;5040315;28;1424;-75
2023/08/01 00:58:47;;;;;;;;;;;;;;;15.64;100.00;99760.31;5050517;28;1226;-76
2023/08/01 01:01:12;;;;;;;;;;;;;;;15.64;100.00;99759.50;5050158;28;1525;-75
2023/08/01 01:03:37;;;;;;;;;;;;;;;15.63;100.00;99757.88;5048473;28;1894;-76
2023/08/01 01:06:29;;;;;;;;;;;;;;;15.63;100.00;99757.88;5029283;28;1569;-75
2023/08/01 01:08:55;;;;;;;;;;;;;;;15.62;100.00;99756.25;5016974;28;1424;-77
2023/08/01 01:11:20;;;;;;;;;;;;;;;15.62;100.00;99761.47;5045763;28;1201;-76
2023/08/01 01:13:45;;;;;;;;;;;;;;;15.63;100.00;99752.66;5042384;28;1316;-75
2023/08/01 01:16:11;;;;;;;;;;;;;;;15.63;100.00;99757.88;5043974;28;1438;-76
2023/08/01 01:18:36;;;;;;;;;;;;;;;15.68;100.00;99755.53;5045854;28;1451;-75
2023/08/01 01:21:01;;;;;;;;;;;;;;;15.57;100.00;99758.59;5048763;28;1309;-75
2023/08/01 01:23:27;;;;;;;;;;;;;;;15.57;100.00;99759.41;5025730;28;1894;-76
2023/08/01 01:25:54;;;;;;;;;;;;;;;15.57;100.00;99758.59;5046729;28;1213;-77
2023/08/01 01:28:19;;;;;;;;;;;;;;;15.57;100.00;99762.00;5047651;28;1340;-77
2023/08/01 01:30:45;;;;;;;;;;;;;;;15.58;100.00;99754.97;5049337;28;1463;-76
2023/08/01 01:33:10;;;;;;;;;;;;;;;15.57;100.00;99763.81;5047392;28;1464;-76
2023/08/01 01:35:35;;;;;;;;;;;;;;;15.56;100.00;99749.94;5042252;28;1448;-77
2023/08/01 01:38:03;;;;;;;;;;;;;;;15.56;100.00;99762.22;5049254;28;1787;-75
2023/08/01 01:40:29;;;;;;;;;;;;;;;15.55;100.00;99755.38;5037359;28;1379;-76
2023/08/01 01:42:54;;;;;;;;;;;;;;;15.54;100.00;99753.72;5036963;28;1902;-76
2023/08/01 01:45:19;;;;;;;;;;;;;;;15.53;100.00;99752.09;5042289;28;1237;-76
2023/08/01 01:47:45;;;;;;;;;;;;;;;15.53;100.00;99752.09;5049808;28;1438;-76
2023/08/01 01:50:10;;;;;;;;;;;;;;;15.50;100.00;99747.25;5064642;28;1478;-76
2023/08/01 01:52:35;;;;;;;;;;;;;;;15.46;100.00;99744.19;5055624;28;1394;-76
2023/08/01 01:55:00;;;;;;;;;;;;;;;15.44;100.00;99740.16;5046743;28;1169;-76
2023/08/01 01:57:26;;;;;;;;;;;;;;;15.40;100.00;99737.09;5058420;28;1354;-76
2023/08/01 01:59:51;;;;;;;;;;;;;;;15.37;100.00;99743.50;5058235;28;1506;-77
2023/08/01 02:02:16;;;;;;;;;;;;;;;15.37;100.00;99743.50;5056360;28;1965;-77
2023/08/01 02:04:41;;;;;;;;;;;;;;;15.33;100.00;99737.00;5060022;28;1353;-77
2023/08/01 02:07:06;;;;;;;;;;;;;;;15.33;100.00;99746.66;5060478;28;1205;-76
2023/08/01 02:09:32;;;;;;;;;;;;;;;15.31;100.00;99739.00;5057089;28;1349;-77
2023/08/01 02:11:57;;;;;;;;;;;;;;;15.31;100.00;99748.63;5043226;28;1357;-75
2023/08/01 02:14:22;;;;;;;;;;;;;;;15.27;100.00;99737.75;5061001;28;1337;-75
2023/08/01 02:16:47;;;;;;;;;;;;;;;15.27;100.00;99748.19;5059408;28;1272;-76
2023/08/01 02:19:12;;;;;;;;;;;;;;;15.27;100.00;99740.34;5054409;28;1395;-76
2023/08/01 02:21:37;;;;;;;;;;;;;;;15.27;100.00;99737.75;5054083;28;1270;-76
2023/08/01 02:24:03;;;;;;;;;;;;;;;15.25;100.00;99733.69;5055180;28;2322;-76
2023/08/01 02:26:29;;;;;;;;;;;;;;;15.21;100.00;99733.25;5053334;28;1246;-75
2023/08/01 02:28:54;;;;;;;;;;;;;;;15.20;100.00;99731.63;5045803;28;1239;-76
2023/08/01 02:31:19;;;;;;;;;;;;;;;15.21;100.00;99732.44;5049985;28;1275;-76
2023/08/01 02:33:45;;;;;;;;;;;;;;;15.17;100.00;99734.59;5052349;28;1594;-76
2023/08/01 02:36:10;;;;;;;;;;;;;;;15.17;100.00;99731.19;5061178;28;1193;-76
2023/08/01 02:38:35;;;;;;;;;;;;;;;15.15;100.00;99736.59;5043237;28;1554;-76
2023/08/01 02:41:00;;;;;;;;;;;;;;;15.14;100.00;99742.81;5059204;28;1383;-76
2023/08/01 02:43:25;;;;;;;;;;;;;;;15.16;100.00;99737.41;5036001;28;1947;-75
2023/08/01 02:45:50;;;;;;;;;;;;;;;15.12;100.00;99739.53;5053142;28;1319;-76
2023/08/01 02:48:16;;;;;;;;;;;;;;;15.13;100.00;99743.78;5057626;28;1338;-76
2023/08/01 02:50:41;;;;;;;;;;;;;;;15.13;100.00;99747.19;5051188;28;1243;-76
2023/08/01 02:53:06;;;;;;;;;;;;;;;15.15;100.00;99744.41;5056179;28;1141;-76
2023/08/01 02:55:32;;;;;;;;;;;;;;;15.15;100.00;99744.41;5049362;28;1237;-76
2023/08/01 02:57:57;;;;;;;;;;;;;;;15.13;100.00;99739.34;5061850;28;1322;-76
2023/08/01 03:00:22;;;;;;;;;;;;;;;15.12;100.00;99732.53;5037842;28;1637;-76
2023/08/01 03:02:48;;;;;;;;;;;;;;;15.11;100.00;99738.75;5053545;28;1902;-76
2023/08/01 03:05:13;;;;;;;;;;;;;;;15.10;100.00;99731.09;5039584;28;1442;-76
2023/08/01 03:07:38;;;;;;;;;;;;;;;15.07;100.00;99734.06;5051941;28;1244;-76
2023/08/01 03:10:04;;;;;;;;;;;;;;;15.04;100.00;99737.03;5055528;28;1310;-76
2023/08/01 03:12:29;;;;;;;;;;;;;;;15.02;100.00;99733.78;5053384;28;1378;-76
2023/08/01 03:14:54;;;;;;;;;;;;;;;15.01;100.00;99740.00;5051812;28;1357;-76
2023/08/01 03:17:19;;;;;;;;;;;;;;;15.01;100.00;99732.16;5058512;28;1296;-76
2023/08/01 03:19:44;;;;;;;;;;;;;;;14.99;100.00;99742.00;5061988;28;1281;-75
2023/08/01 03:22:10;;;;;;;;;;;;;;;14.99;100.00;99744.59;5058884;28;1973;-75
2023/08/01 03:24:36;;;;;;;;;;;;;;;14.97;100.00;99741.38;5035268;28;1257;-75
2023/08/01 03:27:01;;;;;;;;;;;;;;;14.98;100.00;99743.00;5055747;28;1043;-76
2023/08/01 03:29:26;;;;;;;;;;;;;;;14.98;100.00;99743.00;5058479;28;1334;-76
2023/08/01 03:31:52;;;;;;;;;;;;;;;14.96;100.00;99750.97;5039185;28;1522;-77
2023/08/01 03:34:17;;;;;;;;;;;;;;;14.97;100.00;99754.44;5053394;28;1212;-76
2023/08/01 03:36:42;;;;;;;;;;;;;;;14.94;100.00;99747.75;5057905;28;1356;-75
2023/08/01 03:39:09;;;;;;;;;;;;;;;14.92;100.00;99749.75;5052878;28;1102;-76
2023/08/01 03:41:35;;;;;;;;;;;;;;;14.93;100.00;99751.34;5059411;28;1284;-75
2023/08/01 03:44:00;;;;;;;;;;;;;;;14.93;100.00;99746.13;5057760;28;1953;-75
2023/08/01 03:46:25;;;;;;;;;;;;;;;14.93;100.00;99753.16;5055175;28;1352;-75
2023/08/01 03:48:50;;;;;;;;;;;;;;;14.92;100.00;99751.53;5063355;28;1704;-75
2023/08/01 03:51:17;;;;;;;;;;;;;;;14.92;100.00;99748.94;5060648;28;1564;-76
2023/08/01 03:53:42;;;;;;;;;;;;;;;14.94;100.00;99749.56;5058915;28;1786;-76
2023/08/01 03:56:08;;;;;;;;;;;;;;;14.92;100.00;99746.31;5065036;28;1062;-75
2023/08/01 03:58:33;;;;;;;;;;;;;;;14.94;100.00;99757.38;5057716;28;1338;-75
2023/08/01 04:00:58;;;;;;;;;;;;;;;14.91;100.00;99752.50;5060242;28;1208;-76
2023/08/01 04:03:23;;;;;;;;;;;;;;;14.90;100.00;99750.88;5060560;28;1980;-75
2023/08/01 04:05:48;;;;;;;;;;;;;;;14.86;100.00;99751.25;5065967;28;1374;-76
2023/08/01 04:08:14;;;;;;;;;;;;;;;14.84;100.00;99748.00;5064244;28;1256;-76
2023/08/01 04:10:39;;;;;;;;;;;;;;;14.83;100.00;99746.38;5064386;28;1637;-76
2023/08/01 04:13:04;;;;;;;;;;;;;;;14.84;100.00;99745.38;5063347;28;1313;-75
2023/08/01 04:15:30;;;;;;;;;;;;;;;14.83;100.00;99756.81;5063236;28;1328;-76
2023/08/01 04:17:55;;;;;;;;;;;;;;;14.83;100.00;99754.22;5060387;28;1212;-76
2023/08/01 04:20:20;;;;;;;;;;;;;;;14.81;100.00;99758.81;5065162;28;1248;-76
2023/08/01 04:22:45;;;;;;;;;;;;;;;14.81;100.00;99753.59;5059877;28;2318;-75
2023/08/01 04:25:11;;;;;;;;;;;;;;;14.79;100.00;99760.78;5049122;28;1616;-76
2023/08/01 04:27:36;;;;;;;;;;;;;;;14.80;100.00;99762.44;5064046;28;1268;-76
2023/08/01 04:30:01;;;;;;;;;;;;;;;14.82;100.00;99754.41;5063905;28;1090;-76
2023/08/01 04:32:26;;;;;;;;;;;;;;;14.80;100.00;99751.97;5060063;28;1344;-76
2023/08/01 04:34:51;;;;;;;;;;;;;;;14.80;100.00;99748.56;5059130;28;1397;-76
2023/08/01 04:37:20;;;;;;;;;;;;;;;14.80;100.00;99751.97;5062417;28;1232;-76
2023/08/01 04:39:45;;;;;;;;;;;;;;;14.80;100.00;99749.38;5061501;28;1203;-76
2023/08/01 04:42:10;;;;;;;;;;;;;;;14.82;100.00;99750.00;5062718;28;1893;-76
2023/08/01 04:44:36;;;;;;;;;;;;;;;14.81;100.00;99753.59;5064899;28;1369;-76
2023/08/01 04:47:01;;;;;;;;;;;;;;;14.83;100.00;99754.22;5061547;28;1515;-75
2023/08/01 04:49:26;;;;;;;;;;;;;;;14.82;100.00;99750.00;5061875;28;1144;-75
2023/08/01 04:51:51;;;;;;;;;;;;;;;14.83;100.00;99754.22;5043011;28;1260;-76
2023/08/01 04:54:17;;;;;;;;;;;;;;;14.83;100.00;99746.38;5040573;28;1531;-76
2023/08/01 04:56:42;;;;;;;;;;;;;;;14.84;100.00;99745.38;5064582;28;1314;-76
2023/08/01 04:59:07;;;;;;;;;;;;;;;14.87;100.00;99747.66;5062458;28;1278;-76
2023/08/01 05:01:32;;;;;;;;;;;;;;;14.88;100.00;99758.91;5055125;28;1503;-75
2023/08/01 05:03:58;;;;;;;;;;;;;;;14.91;100.00;99762.94;5063040;28;1898;-76
2023/08/01 05:06:23;;;;;;;;;;;;;;;14.91;100.00;99757.72;5038103;28;1313;-76
2023/08/01 05:08:48;;;;;;;;;;;;;;;14.92;100.00;99769.81;5068277;28;1248;-76
2023/08/01 05:11:13;;;;;;;;;;;;;;;14.92;100.00;99759.38;5058202;28;1209;-75
2023/08/01 05:13:38;;;;;;;;;;;;;;;14.92;100.00;99754.16;5058290;28;1205;-76
2023/08/01 05:16:04;;;;;;;;;;;;;;;14.94;100.00;99752.16;5057337;28;1308;-77
2023/08/01 05:18:29;;;;;;;;;;;;;;;14.96;100.00;99756.19;5062900;28;1283;-76
2023/08/01 05:20:54;;;;;;;;;;;;;;;14.94;100.00;99762.59;5058020;28;1281;-76
2023/08/01 05:23:19;;;;;;;;;;;;;;;14.97;100.00;99767.47;5061153;28;2258;-76
2023/08/01 05:25:45;;;;;;;;;;;;;;;14.96;100.00;99760.63;5056575;28;1196;-76
2023/08/01 05:28:10;;;;;;;;;;;;;;;15.01;100.00;99768.72;5044664;28;1257;-75
2023/08/01 05:30:35;;;;;;;;;;;;;;;15.03;100.00;99769.38;5041648;28;1198;-76
2023/08/01 05:33:00;;;;;;;;;;;;;;;15.07;100.00;99768.00;5057800;28;1240;-76
2023/08/01 05:35:25;;;;;;;;;;;;;;;15.08;100.00;99769.63;5050114;28;1557;-76
2023/08/01 05:37:51;;;;;;;;;;;;;;;15.09;100.00;99766.03;5064187;28;1517;-76
2023/08/01 05:40:16;;;;;;;;;;;;;;;15.15;100.00;99762.72;5040885;28;1260;-76
2023/08/01 05:42:41;;;;;;;;;;;;;;;15.18;100.00;99762.31;5057622;28;1975;-76
2023/08/01 05:45:06;;;;;;;;;;;;;;;15.18;100.00;99759.72;5054364;28;1506;-76
2023/08/01 05:47:32;;;;;;;;;;;;;;;15.25;100.00;99771.06;5058036;28;1288;-76
2023/08/01 05:49:57;;;;;;;;;;;;;;;15.27;100.00;99774.31;5056090;28;1285;-76
2023/08/01 05:52:22;;;;;;;;;;;;;;;15.31;100.00;99780.81;5059701;28;1074;-76
2023/08/01 05:54:48;;;;;;;;;;;;;;;15.34;100.00;99777.81;5042834;28;1593;-76
2023/08/01 05:57:13;;;;;;;;;;;;;;;15.36;100.00;99777.63;5058771;28;1054;-76
2023/08/01 05:59:38;;;;;;;;;;;;;;;15.38;100.00;99786.91;5059361;28;1763;-76
2023/08/01 06:02:04;;;;;;;;;;;;;;;15.39;100.00;99792.94;5053589;28;1902;-76
2023/08/01 06:04:29;;;;;;;;;;;;;;;15.40;100.00;99789.34;5057585;28;1248;-77
2023/08/01 06:06:54;;;;;;;;;;;;;;;15.41;100.00;99796.19;5060737;28;1252;-76
2023/08/01 06:09:19;;;;;;;;;;;;;;;15.44;100.00;99789.81;5056545;28;1442;-76
2023/08/01 06:11:44;;;;;;;;;;;;;;;15.45;100.00;99797.44;5059451;28;1248;-76
2023/08/01 06:14:10;;;;;;;;;;;;;;;15.44;100.00;99795.03;5064113;28;1192;-76
2023/08/01 06:16:35;;;;;;;;;;;;;;;15.45;100.00;99792.22;5062208;28;1312;-77
2023/08/01 06:19:00;;;;;;;;;;;;;;;15.50;100.00;99794.31;5060305;28;1263;-77
2023/08/01 06:21:25;;;;;;;;;;;;;;;15.53;100.00;99804.38;5063488;28;1263;-76
2023/08/01 06:23:51;;;;;;;;;;;;;;;15.54;100.00;99801.59;5055359;28;1937;-76
2023/08/01 06:26:16;;;;;;;;;;;;;;;15.60;100.00;99807.91;5056529;28;1545;-77
2023/08/01 06:28:41;;;;;;;;;;;;;;;15.61;100.00;99806.91;5055458;28;1252;-77
2023/08/01 06:31:06;;;;;;;;;;;;;;;15.62;100.00;99814.59;5057620;28;1433;-76
2023/08/01 06:33:32;;;;;;;;;;;;;;;15.66;100.00;99810.63;5053982;28;1363;-77
2023/08/01 06:35:57;;;;;;;;;;;;;;;15.67;100.00;99800.97;5054078;28;1260;-77
2023/08/01 06:38:22;;;;;;;;;;;;;;;15.68;100.00;99802.59;5054344;28;1296;-76
2023/08/01 06:40:47;;;;;;;;;;;;;;;15.70;100.00;99805.81;5053306;28;1236;-76
2023/08/01 06:43:12;;;;;;;;;;;;;;;15.73;100.00;99810.69;5056471;28;1898;-76
2023/08/01 06:45:37;;;;;;;;;;;;;;;15.78;100.00;99804.94;5054902;28;1136;-77
2023/08/01 06:48:03;;;;;;;;;;;;;;;15.83;100.00;99811.22;5056781;28;1089;-77
2023/08/01 06:50:29;;;;;;;;;;;;;;;15.89;100.00;99815.72;5057940;28;1149;-76
2023/08/01 06:52:54;;;;;;;;;;;;;;;15.96;100.00;99817.59;5052440;28;1318;-76
2023/08/01 06:55:19;;;;;;;;;;;;;;;15.97;100.00;99821.81;5051155;28;1397;-76
2023/08/01 06:57:44;;;;;;;;;;;;;;;15.98;100.00;99824.25;5054465;28;1215;-76
2023/08/01 07:00:11;;;;;;;;;;;;;;;15.99;100.00;99819.81;5053847;28;1235;-76
2023/08/01 07:02:36;;;;;;;;;;;;;;;16.00;100.00;99826.66;5053114;28;1972;-76
2023/08/01 07:05:01;;;;;;;;;;;;;;;16.02;100.00;99829.94;5053719;28;1434;-76
2023/08/01 07:07:26;;;;;;;;;;;;;;;16.06;100.00;99821.53;5057251;28;1241;-76
2023/08/01 07:09:52;;;;;;;;;;;;;;;16.14;100.00;99828.44;5056589;28;1224;-76
2023/08/01 07:12:17;;;;;;;;;;;;;;;16.16;100.00;99826.44;5057732;28;1272;-76
2023/08/01 07:14:42;;;;;;;;;;;;;;;16.15;100.00;99827.44;5056428;28;1216;-78
2023/08/01 07:17:08;;;;;;;;;;;;;;;16.18;100.00;99834.94;5057138;28;1228;-76
2023/08/01 07:19:33;;;;;;;;;;;;;;;16.25;100.00;99825.34;5059872;28;1236;-76
2023/08/01 07:21:58;;;;;;;;;;;;;;;16.36;100.00;99827.47;5058816;28;1437;-76
2023/08/01 07:24:23;;;;;;;;;;;;;;;16.44;100.00;99829.94;5057844;28;1978;-76
2023/08/01 07:26:48;;;;;;;;;;;;;;;16.50;100.00;99827.56;5051987;28;1286;-76
2023/08/01 07:29:15;;;;;;;;;;;;;;;16.46;100.00;99827.97;5056848;28;1277;-77
2023/08/01 07:31:40;;;;;;;;;;;;;;;16.45;100.00;99813.22;5059746;28;1292;-77
2023/08/01 07:34:06;;;;;;;;;;;;;;;16.39;100.00;99821.84;5055073;28;1219;-78
2023/08/01 07:36:31;;;;;;;;;;;;;;;16.37;100.00;99834.31;5056492;28;944;-78
2023/08/01 07:38:56;;;;;;;;;;;;;;;16.35;100.00;99836.31;5051285;28;1247;-77
2023/08/01 07:41:21;;;;;;;;;;;;;;;16.32;100.00;99826.22;5055658;28;1296;-78
2023/08/01 07:43:46;;;;;;;;;;;;;;;16.28;100.00;99840.66;5049570;28;1906;-78
2023/08/01 07:46:12;;;;;;;;;;;;;;;16.29;100.00;99826.59;5050996;28;1121;-78
2023/08/01 07:48:37;;;;;;;;;;;;;;;16.35;100.00;99831.09;5053897;28;1647;-78
2023/08/01 07:51:05;;;;;;;;;;;;;;;16.42;100.00;99829.31;5056866;28;1074;-78
2023/08/01 07:53:30;;;;;;;;;;;;;;;16.55;100.00;99825.19;5057973;28;1290;-77
2023/08/01 07:55:55;;;;;;;;;;;;;;;16.63;100.00;99825.06;5054923;28;1696;-78
2023/08/01 07:58:20;;;;;;;;;;;;;;;16.77;100.00;99829.44;5053301;28;1258;-78
2023/08/01 08:00:46;;;;;;;;;;;;;;;16.90;100.00;99828.72;5057550;28;1320;-77
2023/08/01 08:03:11;;;;;;;;;;;;;;;16.96;100.00;99839.25;5058528;28;1905;-77
2023/08/01 08:05:40;;;;;;;;;;;;;;;16.94;100.00;99841.25;5053692;28;1292;-77
2023/08/01 08:08:05;;;;;;;;;;;;;;;16.91;100.00;99854.72;5060716;28;1149;-77
2023/08/01 08:10:31;;;;;;;;;;;;;;;16.77;100.00;99845.16;5053423;28;1110;-77
2023/08/01 08:12:56;;;;;;;;;;;;;;;16.75;100.00;99856.84;5056017;28;1327;-78
2023/08/01 08:15:23;;;;;;;;;;;;;;;16.63;100.00;99854.69;5055877;28;1259;-77
2023/08/01 08:17:48;;;;;;;;;;;;;;;16.53;100.00;99853.38;5052361;28;1149;-77
2023/08/01 08:20:13;;;;;;;;;;;;;;;16.49;100.00;99852.13;5060146;28;1261;-77
2023/08/01 08:22:38;;;;;;;;;;;;;;;16.43;100.00;99859.72;5057913;28;1971;-77
2023/08/01 08:25:04;;;;;;;;;;;;;;;16.43;100.00;99859.72;5059040;28;1299;-77
2023/08/01 08:27:29;;;;;;;;;;;;;;;16.46;100.00;99859.38;5050589;28;1317;-78
2023/08/01 08:29:55;;;;;;;;;;;;;;;16.58;100.00;99851.03;5056909;28;1549;-77
2023/08/01 08:32:20;;;;;;;;;;;;;;;16.68;100.00;99861.97;5038554;28;1231;-77
2023/08/01 08:34:45;;;;;;;;;;;;;;;16.84;100.00;99860.91;5055339;28;1154;-76
2023/08/01 08:37:10;;;;;;;;;;;;;;;16.82;100.00;99857.69;5062518;28;1342;-77
2023/08/01 08:39:35;;;;;;;;;;;;;;;16.91;100.00;99857.34;5054480;28;1256;-77
2023/08/01 08:42:01;;;;;;;;;;;;;;;17.04;100.00;99850.63;5054585;28;1232;-77
2023/08/01 08:44:29;;;;;;;;;;;;;;;17.16;100.00;99870.03;5059153;28;1894;-77
2023/08/01 08:46:56;;;;;;;;;;;;;;;17.18;100.00;99850.50;5054109;28;1278;-77
2023/08/01 08:49:22;;;;;;;;;;;;;;;17.14;100.00;99864.16;5058684;28;1290;-78
2023/08/01 08:51:48;;;;;;;;;;;;;;;17.20;100.00;99868.63;5056643;28;1220;-77
2023/08/01 08:54:14;;;;;;;;;;;;;;;17.15;100.00;99858.75;5061659;28;1265;-77
2023/08/01 08:56:40;;;;;;;;;;;;;;;17.14;100.00;99866.78;5059376;28;1156;-77
2023/08/01 08:59:06;;;;;;;;;;;;;;;17.13;100.00;99855.50;5059204;28;1263;-77
2023/08/01 09:01:32;;;;;;;;;;;;;;;17.20;100.00;99858.16;5063725;28;1016;-77
2023/08/01 09:03:57;;;;;;;;;;;;;;;17.29;100.00;99854.41;5061131;28;1894;-77
2023/08/01 09:06:29;;;;;;;;;;;;;;;17.41;100.00;99855.47;5060074;28;1489;-78
2023/08/01 09:09:02;;;;;;;;;;;;;;;17.48;100.00;99864.16;5059335;28;1070;-77
2023/08/01 09:11:27;;;;;;;;;;;;;;;17.60;98.89;99866.25;5056245;28;1219;-77
2023/08/01 09:13:52;;;;;;;;;;;;;;;17.57;99.30;99867.47;5062681;28;1188;-77
2023/08/01 09:16:17;;;;;;;;;;;;;;;17.63;99.83;99860.63;5058800;28;1200;-77
2023/08/01 09:18:46;;;;;;;;;;;;;;;17.75;98.30;99874.84;5060918;28;1188;-77
2023/08/01 09:21:11;;;;;;;;;;;;;;;17.73;98.82;99871.59;5062993;28;1041;-77
2023/08/01 09:23:37;;;;;;;;;;;;;;;17.89;98.09;99866.03;5061468;28;1957;-76
2023/08/01 09:26:11;;;;;;;;;;;;;;;17.99;97.04;99876.94;5045313;28;1566;-76
2023/08/01 09:28:36;;;;;;;;;;;;;;;18.07;96.07;99872.56;5056135;28;1275;-77
2023/08/01 09:31:02;;;;;;;;;;;;;;;18.13;95.03;99877.00;5056703;28;1079;-77
2023/08/01 09:33:36;;;;;;;;;;;;;;;18.16;92.11;99887.09;5058371;28;1253;-76
2023/08/01 09:36:04;;;;;;;;;;;;;;;18.12;92.00;99891.13;5055891;28;1212;-76
2023/08/01 09:38:33;;;;;;;;;;;;;;;18.14;93.70;99883.88;5055620;28;1261;-77
2023/08/01 09:40:58;;;;;;;;;;;;;;;18.21;93.23;99895.19;5056266;28;1584;-77
2023/08/01 09:43:23;;;;;;;;;;;;;;;18.25;93.04;99893.81;5034529;28;1973;-76
2023/08/01 09:45:52;;;;;;;;;;;;;;;18.30;92.76;99904.53;5043015;28;1260;-76
2023/08/01 09:48:22;;;;;;;;;;;;;;;18.32;91.63;99907.75;5041364;28;1256;-77
2023/08/01 09:50:47;;;;;;;;;;;;;;;18.23;91.36;99903.66;5060422;28;1112;-76
2023/08/01 09:53:12;;;;;;;;;;;;;;;18.28;89.88;99901.25;5055582;28;1189;-78
2023/08/01 09:55:39;;;;;;;;;;;;;;;18.18;90.41;99900.81;5056712;28;1304;-78
2023/08/01 09:58:07;;;;;;;;;;;;;;;18.24;88.83;99905.31;5056855;28;1251;-79
2023/08/01 10:00:32;;;;;;;;;;;;;;;18.10;89.75;99914.94;5057956;28;1093;-78
2023/08/01 10:03:01;;;;;;;;;;;;;;;18.17;89.33;99909.69;5056041;28;1977;-78
2023/08/01 10:05:29;;;;;;;;;;;;;;;18.29;89.02;99913.38;5062215;28;1306;-79
2023/08/01 10:07:56;;;;;;;;;;;;;;;18.36;88.90;99914.22;5057101;28;1444;-78
2023/08/01 10:10:21;;;;;;;;;;;;;;;18.52;89.05;99924.38;5057825;28;1192;-77
2023/08/01 10:12:48;;;;;;;;;;;;;;;18.62;88.18;99928.41;5061756;28;1240;-79
2023/08/01 10:15:13;;;;;;;;;;;;;;;18.67;85.78;99916.31;5042931;28;1345;-78
2023/08/01 10:17:39;;;;;;;;;;;;;;;18.75;83.33;99912.69;5058691;28;1360;-77
2023/08/01 10:20:05;;;;;;;;;;;;;;;18.70;83.23;99920.38;5059000;28;1698;-79
2023/08/01 10:22:31;;;;;;;;;;;;;;;18.67;83.07;99957.50;5055484;28;1894;-79
2023/08/01 10:24:56;;;;;;;;;;;;;;;18.60;83.00;99935.69;5058523;28;1347;-79
2023/08/01 10:27:22;;;;;;;;;;;;;;;18.49;83.23;99935.25;5055808;28;1109;-78
2023/08/01 10:30:00;;;;;;;;;;;;;;;18.38;84.13;99938.44;5056489;28;1204;-78
2023/08/01 10:32:35;;;;;;;;;;;;;;;18.26;82.52;99934.78;5055575;28;1356;-79
2023/08/01 10:35:01;;;;;;;;;;;;;;;18.16;84.04;99934.34;5059483;28;1249;-79
2023/08/01 10:37:26;;;;;;;;;;;;;;;18.15;83.92;99937.97;5058692;28;1382;-78
2023/08/01 10:39:58;;;;;;;;;;;;;;;18.16;83.26;99935.16;5060247;28;1240;-78
2023/08/01 10:42:23;;;;;;;;;;;;;;;18.10;83.95;99935.13;5039772;28;1914;-80
2023/08/01 10:44:48;;;;;;;;;;;;;;;18.22;83.96;99949.28;5059287;28;1271;-79
2023/08/01 10:47:14;;;;;;;;;;;;;;;18.43;81.12;99941.31;5056634;28;1557;-79
2023/08/01 10:49:40;;;;;;;;;;;;;;;18.48;84.29;99932.84;5058706;28;1275;-79
2023/08/01 10:52:23;;;;;;;;;;;;;;;18.64;84.37;99931.63;5054839;28;1237;-77
2023/08/01 10:54:55;;;;;;;;;;;;;;;18.89;83.23;99940.59;5054400;28;1698;-79
2023/08/01 10:57:20;;;;;;;;;;;;;;;19.04;79.81;99938.59;5057283;28;1067;-78
2023/08/01 10:59:46;;;;;;;;;;;;;;;18.86;81.08;99959.38;5059074;28;1667;-80
2023/08/01 11:02:11;;;;;;;;;;;;;;;18.67;81.35;99947.00;5040163;28;1335;-78
2023/08/01 11:04:36;;;;;;;;;;;;;;;18.40;83.43;99952.19;5062088;28;1914;-78
2023/08/01 11:07:03;;;;;;;;;;;;;;;18.36;83.82;99956.22;5060935;28;1498;-79
2023/08/01 11:09:29;;;;;;;;;;;;;;;18.44;84.28;99961.28;5055766;28;1004;-78
2023/08/01 11:11:55;;;;;;;;;;;;;;;18.39;85.97;99955.81;5055517;28;1189;-78
2023/08/01 11:14:22;;;;;;;;;;;;;;;18.41;85.47;99948.56;5048722;28;1313;-78
2023/08/01 11:16:47;;;;;;;;;;;;;;;18.38;86.45;99969.16;5055136;28;1224;-79
2023/08/01 11:19:20;;;;;;;;;;;;;;;18.35;85.63;99964.28;5053515;28;1295;-79
2023/08/01 11:21:45;;;;;;;;;;;;;;;18.36;86.59;99960.69;5053827;28;1217;-79
2023/08/01 11:24:10;;;;;;;;;;;;;;;18.50;86.18;99957.88;5055222;28;2008;-79
2023/08/01 11:26:36;;;;;;;;;;;;;;;18.64;85.83;99958.75;5056091;28;1240;-79
2023/08/01 11:29:03;;;;;;;;;;;;;;;18.80;85.60;99965.44;5052072;28;1451;-80
2023/08/01 11:31:28;;;;;;;;;;;;;;;18.86;84.17;99972.53;5034733;28;1413;-79
2023/08/01 11:33:59;;;;;;;;;;;;;;;18.99;82.92;99977.00;5052280;28;1143;-79
2023/08/01 11:36:26;;;;;;;;;;;;;;;19.21;82.29;99961.84;5055308;28;1181;-80
2023/08/01 11:38:51;;;;;;;;;;;;;;;19.29;81.77;99972.16;5055387;28;1224;-78
2023/08/01 11:41:16;;;;;;;;;;;;;;;19.48;80.78;99971.34;5058968;28;1288;-80
2023/08/01 11:43:42;;;;;;;;;;;;;;;19.72;79.23;99966.47;5060034;28;1955;-80
2023/08/01 11:46:07;;;;;;;;;;;;;;;19.74;78.73;99973.16;5058250;28;1213;-80
2023/08/01 11:48:32;;;;;;;;;;;;;;;19.76;79.15;99973.75;5057654;28;1227;-79
2023/08/01 11:50:58;;;;;;;;;;;;;;;19.75;77.73;99981.84;5055749;28;1375;-78
2023/08/01 11:53:23;;;;;;;;;;;;;;;19.67;78.56;99976.78;5056028;28;1308;-79
2023/08/01 11:55:51;;;;;;;;;;;;;;;19.75;77.69;99979.22;5039116;28;1201;-80
2023/08/01 11:58:27;;;;;;;;;;;;;;;19.79;77.58;99983.06;5055631;28;1420;-79
2023/08/01 12:01:01;;;;;;;;;;;;;;;19.88;76.81;99984.44;5053888;28;1102;-79
2023/08/01 12:03:26;;;;;;;;;;;;;;;19.98;76.66;99984.84;5057292;28;1901;-79
2023/08/01 12:05:51;;;;;;;;;;;;;;;20.06;77.43;99981.97;5040098;28;1217;-78
2023/08/01 12:08:16;;;;;;;;;;;;;;;20.25;78.28;99982.13;5052335;28;1219;-78
2023/08/01 12:10:43;;;;;;;;;;;;;;;20.36;77.20;99981.47;5058640;28;1090;-79
2023/08/01 12:13:21;;;;;;;;;;;;;;;20.41;73.43;99989.53;5060672;28;1119;-79
2023/08/01 12:15:48;;;;;;;;;;;;;;;20.22;73.73;100003.59;5059024;28;1016;-79
2023/08/01 12:18:19;;;;;;;;;;;;;;;20.09;74.42;99999.19;5045910;28;1287;-79
2023/08/01 12:20:44;;;;;;;;;;;;;;;20.03;74.82;100000.00;5044335;28;1345;-79
2023/08/01 12:23:09;;;;;;;;;;;;;;;20.00;73.67;100005.69;5056886;28;1988;-79
2023/08/01 12:25:34;;;;;;;;;;;;;;;20.04;73.03;100001.63;5058749;28;1530;-80
2023/08/01 12:28:00;;;;;;;;;;;;;;;19.97;72.40;100012.19;5058331;28;1526;-79
2023/08/01 12:30:25;;;;;;;;;;;;;;;19.97;73.22;100006.91;5058894;28;1467;-79
2023/08/01 12:32:50;;;;;;;;;;;;;;;20.00;71.58;99998.59;5060637;28;1334;-77
2023/08/01 12:35:15;;;;;;;;;;;;;;;19.93;70.64;100010.97;5046182;28;1266;-79
2023/08/01 12:37:40;;;;;;;;;;;;;;;19.95;71.12;100008.91;5059218;28;1152;-77
2023/08/01 12:40:06;;;;;;;;;;;;;;;20.04;71.56;100012.97;5060108;28;1456;-79
2023/08/01 12:42:31;;;;;;;;;;;;;;;20.10;68.74;100017.41;5056641;28;1930;-79